Time;durP1;ratioP1;P1;durP2;ratioP2;P2;SDS_P1;SDS_P2;PMS_P1;PMS_P2;Temp;Humidity;BMP_temperature;BMP_pressure;BME280_temperature;BME280_humidity;BME280_pressure;Samples;Min_cycle;Max_cycle;Signal;HPM_P1;HPM_P2
2023/02/25 00:01:49;;;;;;;19.40;7.50;;;;;;;10.58;65.49;100810.65;110574;1271;22128;-60
2023/02/25 00:04:31;;;;;;;22.10;7.60;;;;;;;10.58;65.61;100817.08;110416;1272;22388;-60
2023/02/25 00:07:21;;;;;;;15.60;6.60;;;;;;;10.59;65.53;100812.35;110588;1272;22305;-60
2023/02/25 00:09:53;;;;;;;22.50;7.80;;;;;;;10.62;65.51;100803.09;110329;1269;23033;-60
2023/02/25 00:12:22;;;;;;;21.60;6.60;;;;;;;10.64;65.50;100801.17;110555;1275;22760;-60
2023/02/25 00:14:51;;;;;;;19.00;6.30;;;;;;;10.55;66.01;100802.39;110579;1272;22297;-60
2023/02/25 00:17:19;;;;;;;18.10;6.40;;;;;;;10.56;65.94;100799.08;110572;1272;22869;-60
2023/02/25 00:19:47;;;;;;;19.90;7.30;;;;;;;10.55;66.01;100789.90;110569;1268;22422;-60
2023/02/25 00:22:20;;;;;;;23.10;7.40;;;;;;;10.55;65.92;100788.00;110577;1274;23122;-60
2023/02/25 00:24:55;;;;;;;19.40;7.20;;;;;;;10.54;66.09;100786.63;109776;1268;1002675;-60
2023/02/25 00:27:23;;;;;;;30.40;9.20;;;;;;;10.55;66.15;100782.26;109858;1268;1002259;-60
2023/02/25 00:29:52;;;;;;;29.90;7.40;;;;;;;10.69;65.82;100780.75;110301;1268;22423;-60
2023/02/25 00:32:21;;;;;;;24.70;7.10;;;;;;;10.73;65.59;100776.65;110543;1268;22290;-60
2023/02/25 00:34:51;;;;;;;23.50;7.40;;;;;;;10.77;65.57;100777.45;110542;1268;22245;-60
2023/02/25 00:37:19;;;;;;;24.50;9.10;;;;;;;10.79;65.59;100775.85;110565;1269;22441;-60
2023/02/25 00:39:48;;;;;;;20.70;7.80;;;;;;;10.82;65.57;100780.65;110261;1275;22408;-61
2023/02/25 00:42:17;;;;;;;23.00;7.70;;;;;;;10.84;65.48;100774.35;110620;1269;22329;-60
2023/02/25 00:44:48;;;;;;;24.70;8.00;;;;;;;10.85;65.40;100768.59;110582;1268;23181;-60
2023/02/25 00:47:18;;;;;;;23.30;9.10;;;;;;;10.86;65.36;100762.65;110553;1275;22386;-60
2023/02/25 00:49:52;;;;;;;24.00;7.90;;;;;;;10.88;65.36;100766.27;110235;1268;22304;-60
2023/02/25 00:52:20;;;;;;;18.70;8.30;;;;;;;10.90;65.34;100763.27;110559;1271;22746;-60
2023/02/25 00:54:48;;;;;;;30.60;11.10;;;;;;;10.91;65.24;100759.60;110570;1275;22504;-60
2023/02/25 00:57:17;;;;;;;25.50;9.60;;;;;;;10.90;65.21;100759.61;110220;1275;22500;-60
2023/02/25 00:59:45;;;;;;;23.60;8.40;;;;;;;10.89;65.16;100754.79;110576;1268;23012;-60
2023/02/25 01:02:14;;;;;;;22.70;9.00;;;;;;;10.88;65.18;100747.50;110194;1276;22197;-60
2023/02/25 01:04:42;;;;;;;19.50;8.80;;;;;;;10.88;65.21;100744.56;110561;1270;22434;-61
2023/02/25 01:07:12;;;;;;;22.00;9.50;;;;;;;10.88;65.21;100744.04;110567;1275;22469;-60
2023/02/25 01:09:41;;;;;;;24.70;9.30;;;;;;;10.88;65.00;100741.77;110100;1275;22509;-60
2023/02/25 01:12:09;;;;;;;20.80;8.60;;;;;;;10.88;65.10;100741.28;110606;1268;23027;-60
2023/02/25 01:14:39;;;;;;;24.90;8.90;;;;;;;10.88;65.18;100732.59;110589;1275;23351;-60
2023/02/25 01:17:08;;;;;;;20.20;9.70;;;;;;;10.88;65.12;100732.25;110593;1275;23202;-60
2023/02/25 01:19:40;;;;;;;23.30;10.00;;;;;;;10.88;65.05;100726.33;110230;1269;22429;-60
2023/02/25 01:22:08;;;;;;;25.60;9.60;;;;;;;10.88;65.01;100728.08;110553;1269;22762;-61
2023/02/25 01:24:36;;;;;;;21.90;9.00;;;;;;;10.89;65.02;100730.66;110544;1275;22375;-60
2023/02/25 01:27:05;;;;;;;23.40;10.50;;;;;;;10.89;65.13;100725.28;110569;1272;22137;-60
2023/02/25 01:29:39;;;;;;;27.70;8.90;;;;;;;10.90;65.06;100722.30;110561;1268;22203;-60
2023/02/25 01:32:12;;;;;;;31.10;10.50;;;;;;;10.92;65.04;100722.96;110562;1270;22146;-61
2023/02/25 01:34:41;;;;;;;26.40;10.00;;;;;;;10.90;64.86;100717.94;110569;1275;23019;-60
2023/02/25 01:37:10;;;;;;;23.80;8.80;;;;;;;10.90;64.92;100715.20;110545;1272;22297;-60
2023/02/25 01:39:40;;;;;;;24.30;9.50;;;;;;;10.90;64.89;100713.80;110544;1269;23228;-60
2023/02/25 01:42:13;;;;;;;27.50;10.40;;;;;;;10.89;65.02;100707.06;109806;1275;1002386;-60
2023/02/25 01:45:11;;;;;;;20.70;9.70;;;;;;;10.87;64.95;100704.84;109820;1275;1002501;-60
2023/02/25 01:47:39;;;;;;;30.20;9.60;;;;;;;10.83;65.01;100691.23;110594;1268;22232;-58
2023/02/25 01:50:09;;;;;;;18.90;8.50;;;;;;;10.79;65.09;100688.39;110504;1273;22957;-58
2023/02/25 01:52:37;;;;;;;27.00;11.20;;;;;;;10.74;65.31;100686.41;110220;1274;23008;-57
2023/02/25 01:55:08;;;;;;;24.70;8.30;;;;;;;10.72;65.58;100686.11;110499;1270;22341;-58
2023/02/25 01:57:36;;;;;;;23.50;9.50;;;;;;;10.72;65.60;100691.14;110022;1276;22171;-60
2023/02/25 02:00:15;;;;;;;27.70;9.30;;;;;;;10.73;65.59;100692.18;109979;1277;22870;-61
2023/02/25 02:02:46;;;;;;;29.20;9.80;;;;;;;10.76;65.65;100691.06;110023;1279;22508;-60
2023/02/25 02:05:14;;;;;;;23.10;9.60;;;;;;;10.77;65.58;100690.52;109999;1279;22200;-60
2023/02/25 02:07:42;;;;;;;27.70;9.80;;;;;;;10.79;65.53;100683.02;110028;1271;22427;-60
2023/02/25 02:10:11;;;;;;;24.50;10.40;;;;;;;10.78;65.66;100684.95;110156;1272;22452;-61
2023/02/25 02:12:41;;;;;;;35.30;11.30;;;;;;;10.77;65.68;100686.35;110134;1279;23110;-60
2023/02/25 02:15:11;;;;;;;34.20;11.60;;;;;;;10.78;65.58;100681.32;110082;1273;22445;-61
2023/02/25 02:17:57;;;;;;;19.90;10.10;;;;;;;10.78;65.75;100676.62;109944;1279;22389;-60
2023/02/25 02:20:33;;;;;;;27.00;10.90;;;;;;;10.78;65.80;100678.15;110024;1274;22159;-60
2023/02/25 02:23:15;;;;;;;24.20;11.50;;;;;;;10.78;65.84;100674.02;110073;1276;22275;-60
2023/02/25 02:26:01;;;;;;;25.90;11.80;;;;;;;10.78;65.73;100675.58;110029;1271;22176;-60
2023/02/25 02:29:11;;;;;;;27.20;11.50;;;;;;;10.76;65.79;100673.19;109418;1279;1002397;-60
2023/02/25 02:32:10;;;;;;;23.90;12.60;;;;;;;10.74;65.91;100671.66;109786;1280;22421;-60
2023/02/25 02:35:12;;;;;;;23.40;12.10;;;;;;;10.75;65.96;100676.16;109885;1275;22405;-60
2023/02/25 02:37:51;;;;;;;28.00;12.60;;;;;;;10.76;65.86;100668.50;109859;1274;22296;-60
2023/02/25 02:40:48;;;;;;;26.00;12.10;;;;;;;10.78;65.76;100667.59;109964;1282;22223;-60
2023/02/25 02:43:20;;;;;;;26.00;12.20;;;;;;;10.79;65.74;100672.41;109612;1282;23397;-58
2023/02/25 02:45:51;;;;;;;;;;;;;;;10.79;65.79;100665.66;109615;1280;23092;-60
2023/02/25 02:48:23;;;;;;;25.70;12.30;;;;;;;10.79;65.97;100672.95;109640;1285;22370;-60
2023/02/25 02:50:55;;;;;;;34.20;13.30;;;;;;;10.79;65.81;100674.85;109524;1282;22994;-60
2023/02/25 02:53:36;;;;;;;29.40;12.50;;;;;;;10.80;65.84;100674.13;109454;1288;22183;-60
2023/02/25 02:56:05;;;;;;;27.20;12.10;;;;;;;10.80;65.80;100668.56;109482;1286;22201;-60
2023/02/25 02:58:36;;;;;;;28.60;12.00;;;;;;;10.80;66.06;100669.09;109419;1288;23045;-60
2023/02/25 03:01:13;;;;;;;24.90;12.90;;;;;;;10.83;66.03;100669.89;109438;1283;22352;-60
2023/02/25 03:03:45;;;;;;;32.10;12.50;;;;;;;10.86;65.84;100667.22;109706;1286;22383;-58
2023/02/25 03:06:20;;;;;;;29.20;13.00;;;;;;;10.88;65.61;100672.04;109660;1280;22849;-60
2023/02/25 03:08:52;;;;;;;32.10;12.80;;;;;;;10.87;65.66;100670.15;109696;1280;22459;-60
2023/02/25 03:11:21;;;;;;;21.60;13.00;;;;;;;10.87;65.76;100667.37;109720;1281;22968;-60
2023/02/25 03:13:50;;;;;;;30.20;13.10;;;;;;;10.88;65.70;100663.52;109004;1286;1006304;-61
2023/02/25 03:16:22;;;;;;;32.80;14.10;;;;;;;10.87;65.47;100667.20;108959;1285;1002379;-60
2023/02/25 03:19:11;;;;;;;25.50;13.20;;;;;;;10.87;65.60;100668.40;109581;1286;22315;-60
2023/02/25 03:21:46;;;;;;;32.60;14.30;;;;;;;10.86;65.60;100666.50;109825;1272;23291;-60
2023/02/25 03:24:21;;;;;;;22.80;12.90;;;;;;;10.86;65.63;100663.40;110138;1274;22428;-60
2023/02/25 03:26:50;;;;;;;28.30;13.90;;;;;;;10.84;65.51;100658.77;110015;1278;22210;-60
2023/02/25 03:29:21;;;;;;;30.80;15.00;;;;;;;10.82;65.51;100656.72;110051;1277;22473;-60
2023/02/25 03:32:02;;;;;;;;;;;;;;;10.80;65.50;100645.84;109212;1279;1002861;-58
2023/02/25 03:34:34;;;;;;;32.50;14.50;;;;;;;10.77;65.66;100635.52;109836;1278;22418;-60
2023/02/25 03:37:05;;;;;;;28.10;14.70;;;;;;;10.75;65.75;100632.27;109819;1283;23396;-60
2023/02/25 03:39:36;;;;;;;25.40;13.80;;;;;;;10.72;65.75;100626.77;109716;1285;22224;-60
2023/02/25 03:42:05;;;;;;;27.40;15.70;;;;;;;10.65;65.90;100628.16;109690;1285;22129;-61
2023/02/25 03:44:35;;;;;;;26.30;15.20;;;;;;;10.65;65.68;100620.88;109657;1278;23189;-60
2023/02/25 03:47:06;;;;;;;30.10;14.40;;;;;;;10.62;65.84;100616.81;109729;1280;23104;-61
2023/02/25 03:49:40;;;;;;;29.50;15.60;;;;;;;10.60;66.01;100617.73;109744;1280;22150;-62
2023/02/25 03:52:12;;;;;;;34.80;17.50;;;;;;;10.54;66.22;100613.16;109804;1283;22342;-60
2023/02/25 03:54:50;;;;;;;33.60;17.00;;;;;;;10.41;66.57;100612.27;109851;1283;23090;-60
2023/02/25 03:57:19;;;;;;;32.90;17.00;;;;;;;10.37;66.71;100611.85;109094;1274;1002474;-60
2023/02/25 03:59:48;;;;;;;30.20;18.00;;;;;;;10.34;66.82;100611.73;109964;1276;23062;-61
2023/02/25 04:02:16;;;;;;;27.80;17.00;;;;;;;10.33;66.85;100614.70;109903;1277;22387;-60
2023/02/25 04:04:44;;;;;;;25.40;16.90;;;;;;;10.41;66.51;100611.75;110098;1275;22519;-60
2023/02/25 04:07:13;;;;;;;23.10;15.90;;;;;;;10.39;66.48;100610.90;110460;1272;22310;-60
2023/02/25 04:09:42;;;;;;;21.30;15.00;;;;;;;10.39;66.54;100611.98;110480;1273;22465;-61
2023/02/25 04:12:14;;;;;;;19.10;15.50;;;;;;;10.36;66.41;100611.51;110144;1268;22774;-61
2023/02/25 04:14:42;;;;;;;22.40;15.70;;;;;;;10.34;66.63;100609.66;110550;1275;22166;-61
2023/02/25 04:17:13;;;;;;;24.70;17.00;;;;;;;10.33;66.73;100607.79;110116;1275;22150;-61
2023/02/25 04:19:43;;;;;;;28.60;16.60;;;;;;;10.31;66.81;100605.74;110535;1275;22385;-61
2023/02/25 04:22:11;;;;;;;21.30;15.40;;;;;;;10.31;67.01;100601.77;109985;1273;284889;-61
2023/02/25 04:24:39;;;;;;;22.00;15.40;;;;;;;10.30;66.92;100597.64;110515;1270;22406;-61
2023/02/25 04:27:08;;;;;;;23.00;16.50;;;;;;;10.28;67.05;100593.68;110497;1271;22155;-61
2023/02/25 04:29:39;;;;;;;22.80;16.40;;;;;;;10.26;67.03;100594.77;110489;1270;22258;-62
2023/02/25 04:32:07;;;;;;;23.10;15.30;;;;;;;10.26;67.14;100593.38;110249;1273;23296;-61
2023/02/25 04:34:35;;;;;;;22.00;15.90;;;;;;;10.24;67.10;100595.49;110457;1275;22103;-59
2023/02/25 04:37:03;;;;;;;22.30;16.30;;;;;;;10.22;67.15;100595.19;110490;1275;22138;-59
2023/02/25 04:39:32;;;;;;;20.00;15.20;;;;;;;10.22;67.27;100593.83;110486;1271;23184;-59
2023/02/25 04:42:00;;;;;;;22.70;15.50;;;;;;;10.22;67.28;100593.83;110557;1268;22714;-61
2023/02/25 04:44:33;;;;;;;26.80;16.30;;;;;;;10.21;67.42;100591.23;110389;1271;22442;-61
2023/02/25 04:47:03;;;;;;;21.70;14.50;;;;;;;10.22;67.46;100595.91;110489;1275;22371;-61
2023/02/25 04:49:32;;;;;;;21.50;15.30;;;;;;;10.22;67.39;100594.34;110483;1271;22457;-61
2023/02/25 04:52:02;;;;;;;23.10;14.70;;;;;;;10.22;67.51;100596.08;110503;1270;22423;-62
2023/02/25 04:54:31;;;;;;;19.20;14.80;;;;;;;10.21;67.47;100589.51;110438;1275;22294;-62
2023/02/25 04:57:03;;;;;;;27.40;15.50;;;;;;;10.19;67.53;100590.58;110261;1271;22438;-62
2023/02/25 04:59:32;;;;;;;24.00;15.60;;;;;;;10.20;67.58;100587.27;110527;1269;22451;-63
2023/02/25 05:02:00;;;;;;;19.80;13.40;;;;;;;10.21;67.54;100585.88;109697;1275;1002844;-62
2023/02/25 05:04:29;;;;;;;20.30;12.70;;;;;;;10.21;67.69;100583.10;110475;1272;22345;-61
2023/02/25 05:06:57;;;;;;;19.00;12.50;;;;;;;10.20;67.74;100583.98;110485;1270;22402;-62
2023/02/25 05:09:25;;;;;;;16.50;12.30;;;;;;;10.19;67.51;100582.63;110464;1270;22371;-62
2023/02/25 05:11:54;;;;;;;16.00;12.00;;;;;;;10.17;67.54;100581.45;110476;1270;22234;-61
2023/02/25 05:14:22;;;;;;;17.50;11.90;;;;;;;10.15;67.56;100581.69;110490;1268;22206;-63
2023/02/25 05:16:50;;;;;;;16.00;11.20;;;;;;;10.12;67.83;100586.60;110523;1269;22142;-62
2023/02/25 05:19:22;;;;;;;15.20;10.70;;;;;;;10.12;67.85;100589.39;110211;1275;22155;-62
2023/02/25 05:21:51;;;;;;;14.50;10.60;;;;;;;10.11;67.68;100584.89;109700;1268;1002452;-62
2023/02/25 05:24:22;;;;;;;14.20;10.50;;;;;;;10.09;67.67;100584.21;109668;1271;1003075;-60
2023/02/25 05:26:50;;;;;;;15.60;11.00;;;;;;;10.07;67.78;100584.77;110264;1275;22517;-60
2023/02/25 05:29:19;;;;;;;13.00;10.70;;;;;;;10.06;67.98;100584.44;110492;1268;22368;-60
2023/02/25 05:31:50;;;;;;;13.70;10.50;;;;;;;10.04;67.91;100583.10;110452;1270;22373;-60
2023/02/25 05:34:21;;;;;;;13.60;9.40;;;;;;;10.00;67.94;100582.67;110518;1268;22934;-61
2023/02/25 05:36:50;;;;;;;12.00;9.80;;;;;;;9.96;68.00;100579.30;110510;1275;22335;-60
2023/02/25 05:39:18;;;;;;;14.00;11.00;;;;;;;9.92;68.15;100582.85;110461;1273;22994;-60
2023/02/25 05:41:47;;;;;;;16.80;11.50;;;;;;;9.92;68.33;100581.13;110459;1269;22444;-60
2023/02/25 05:44:16;;;;;;;15.10;11.40;;;;;;;9.94;68.39;100586.45;110390;1270;22385;-61
2023/02/25 05:46:45;;;;;;;12.80;10.10;;;;;;;9.98;68.61;100584.63;110518;1275;22466;-60
2023/02/25 05:49:13;;;;;;;15.20;11.60;;;;;;;10.02;68.24;100586.27;109366;1273;1003034;-60
2023/02/25 05:51:42;;;;;;;14.30;10.20;;;;;;;10.05;68.29;100582.91;109683;1275;1002377;-60
2023/02/25 05:54:11;;;;;;;14.10;10.80;;;;;;;10.05;68.33;100580.31;110338;1269;22150;-61
2023/02/25 05:56:40;;;;;;;14.80;10.70;;;;;;;10.06;68.52;100573.17;110490;1275;22152;-60
2023/02/25 05:59:12;;;;;;;13.30;10.30;;;;;;;10.09;68.41;100571.39;110463;1270;22219;-60
2023/02/25 06:01:43;;;;;;;14.90;10.00;;;;;;;10.11;68.11;100570.67;110479;1269;22165;-60
2023/02/25 06:04:11;;;;;;;12.00;9.90;;;;;;;10.09;68.16;100567.40;110469;1270;22495;-61
2023/02/25 06:06:49;;;;;;;12.80;9.40;;;;;;;10.09;68.32;100566.52;110481;1271;22404;-60
2023/02/25 06:09:18;;;;;;;14.50;11.30;;;;;;;10.08;68.39;100566.02;110464;1275;22984;-63
2023/02/25 06:11:46;;;;;;;16.50;11.20;;;;;;;10.10;68.38;100567.56;109571;1275;1002953;-60
2023/02/25 06:14:15;;;;;;;15.50;10.80;;;;;;;10.12;68.35;100563.89;110459;1270;22431;-61
2023/02/25 06:16:43;;;;;;;18.20;10.40;;;;;;;10.16;68.46;100562.41;110258;1260;22488;-60
2023/02/25 06:19:13;;;;;;;14.50;10.20;;;;;;;10.19;68.51;100555.92;110312;1273;22402;-60
2023/02/25 06:21:42;;;;;;;13.20;10.00;;;;;;;10.23;68.35;100556.70;110281;1270;22355;-61
2023/02/25 06:24:10;;;;;;;13.70;10.50;;;;;;;10.25;68.27;100559.06;110484;1272;22157;-61
2023/02/25 06:26:41;;;;;;;15.00;10.20;;;;;;;10.28;68.05;100554.34;110487;1275;23191;-61
2023/02/25 06:29:09;;;;;;;13.20;9.70;;;;;;;10.28;68.14;100549.65;110481;1275;22408;-64
2023/02/25 06:31:39;;;;;;;13.90;10.80;;;;;;;10.30;68.07;100547.70;109719;1268;1002273;-64
2023/02/25 06:34:07;;;;;;;14.00;9.80;;;;;;;10.32;67.97;100549.54;110447;1275;22307;-63
2023/02/25 06:36:35;;;;;;;10.90;9.40;;;;;;;10.36;67.86;100548.24;110334;1271;22140;-62
2023/02/25 06:39:04;;;;;;;11.60;9.50;;;;;;;10.38;67.60;100549.55;110582;1268;22193;-63
2023/02/25 06:41:32;;;;;;;15.80;9.90;;;;;;;10.40;67.59;100548.48;110391;1275;22872;-63
2023/02/25 06:44:03;;;;;;;11.90;10.50;;;;;;;10.41;67.57;100549.86;110479;1269;22105;-63
2023/02/25 06:46:31;;;;;;;14.50;9.90;;;;;;;10.43;67.54;100544.42;110339;1273;23038;-63
2023/02/25 06:49:01;;;;;;;13.30;9.20;;;;;;;10.45;67.57;100545.58;110492;1272;22416;-63
2023/02/25 06:51:31;;;;;;;12.30;9.30;;;;;;;10.46;67.18;100553.34;109732;1268;1002591;-62
2023/02/25 06:54:04;;;;;;;12.50;9.40;;;;;;;10.43;67.11;100545.11;110487;1268;22495;-62
2023/02/25 06:56:33;;;;;;;12.30;9.80;;;;;;;10.40;67.12;100549.70;109736;1275;1002786;-63
2023/02/25 06:59:01;;;;;;;13.10;11.00;;;;;;;10.37;67.07;100543.01;110495;1272;22386;-62
2023/02/25 07:01:31;;;;;;;11.90;9.50;;;;;;;10.34;67.27;100546.73;110512;1268;22404;-62
2023/02/25 07:04:00;;;;;;;11.10;9.60;;;;;;;10.33;67.26;100546.58;109713;1275;1002992;-63
2023/02/25 07:06:28;;;;;;;12.20;9.60;;;;;;;10.31;67.48;100548.17;110334;1275;22433;-63
2023/02/25 07:08:56;;;;;;;10.50;9.50;;;;;;;10.31;67.57;100551.31;110385;1268;22393;-62
2023/02/25 07:11:29;;;;;;;12.80;9.40;;;;;;;10.33;67.71;100545.73;109698;1272;1002941;-63
2023/02/25 07:13:57;;;;;;;16.00;10.20;;;;;;;10.34;67.40;100540.65;110488;1268;22399;-62
2023/02/25 07:16:26;;;;;;;11.20;9.40;;;;;;;10.36;67.31;100537.49;109522;1273;1002206;-59
2023/02/25 07:18:56;;;;;;;15.10;9.80;;;;;;;10.37;67.40;100530.19;110420;1270;22430;-60
2023/02/25 07:21:28;;;;;;;12.70;8.70;;;;;;;10.39;67.56;100520.25;110443;1275;22403;-60
2023/02/25 07:23:57;;;;;;;14.60;10.20;;;;;;;10.43;67.47;100521.38;110318;1271;22237;-62
2023/02/25 07:26:28;;;;;;;13.00;10.70;;;;;;;10.46;67.46;100517.11;110160;1270;22145;-62
2023/02/25 07:28:57;;;;;;;11.90;10.30;;;;;;;10.49;67.35;100514.43;110467;1268;22142;-62
2023/02/25 07:31:25;;;;;;;11.00;9.90;;;;;;;10.53;67.27;100505.14;110330;1272;23164;-62
2023/02/25 07:33:54;;;;;;;13.10;10.10;;;;;;;10.57;67.18;100508.33;109739;1268;1002603;-61
2023/02/25 07:36:24;;;;;;;14.90;10.90;;;;;;;10.60;67.07;100507.58;110504;1268;22290;-61
2023/02/25 07:38:53;;;;;;;11.80;10.40;;;;;;;10.62;66.85;100507.33;110462;1269;22149;-61
2023/02/25 07:41:21;;;;;;;15.10;12.10;;;;;;;10.64;66.79;100504.52;110504;1271;22724;-61
2023/02/25 07:43:51;;;;;;;12.00;9.80;;;;;;;10.67;66.82;100508.44;110475;1268;22391;-58
2023/02/25 07:46:19;;;;;;;11.90;9.90;;;;;;;10.69;66.78;100509.05;110538;1268;23257;-58
2023/02/25 07:48:48;;;;;;;16.20;11.70;;;;;;;10.71;66.53;100500.86;110471;1268;22132;-58
2023/02/25 07:51:20;;;;;;;18.10;11.40;;;;;;;10.70;66.47;100494.81;110500;1269;22368;-59
2023/02/25 07:53:50;;;;;;;13.00;10.50;;;;;;;10.71;66.41;100501.04;110485;1275;22272;-60
2023/02/25 07:56:23;;;;;;;13.30;11.20;;;;;;;10.72;66.49;100499.09;110479;1268;22195;-60
2023/02/25 07:58:52;;;;;;;14.10;10.70;;;;;;;10.75;66.59;100496.75;109705;1268;1002124;-58
2023/02/25 08:01:23;;;;;;;13.40;10.60;;;;;;;10.80;66.50;100487.95;110286;1271;22336;-58
2023/02/25 08:03:53;;;;;;;17.20;11.00;;;;;;;10.84;66.14;100486.27;110477;1275;22124;-58
2023/02/25 08:06:21;;;;;;;13.80;9.70;;;;;;;10.86;66.05;100486.91;110250;1271;22187;-57
2023/02/25 08:08:50;;;;;;;16.10;9.90;;;;;;;10.89;66.14;100489.60;110071;1271;22314;-58
2023/02/25 08:11:20;;;;;;;13.40;10.50;;;;;;;10.93;66.02;100490.52;110284;1271;22244;-58
2023/02/25 08:13:49;;;;;;;15.50;11.30;;;;;;;10.97;65.88;100492.00;110303;1278;22834;-58
2023/02/25 08:16:18;;;;;;;16.70;12.00;;;;;;;11.00;65.62;100486.71;110275;1271;22298;-58
2023/02/25 08:18:47;;;;;;;14.40;10.80;;;;;;;11.02;65.52;100485.97;110275;1278;22304;-57
2023/02/25 08:21:20;;;;;;;15.00;11.50;;;;;;;11.02;65.43;100477.45;110173;1276;22430;-57
2023/02/25 08:23:50;;;;;;;14.10;11.60;;;;;;;11.05;65.58;100478.58;110253;1271;22164;-58
2023/02/25 08:26:21;;;;;;;17.00;13.10;;;;;;;11.09;65.40;100479.00;110276;1278;23445;-58
2023/02/25 08:28:49;;;;;;;15.00;12.30;;;;;;;11.10;65.33;100473.23;110288;1271;22208;-57
2023/02/25 08:31:18;;;;;;;17.20;12.70;;;;;;;11.13;65.27;100467.92;110269;1274;22393;-57
2023/02/25 08:33:48;;;;;;;19.50;12.80;;;;;;;11.14;65.16;100461.31;110115;1278;23123;-58
2023/02/25 08:36:25;;;;;;;17.90;13.40;;;;;;;11.16;65.28;100464.20;110284;1278;22205;-58
2023/02/25 08:38:54;;;;;;;19.80;13.00;;;;;;;11.20;65.23;100464.42;110425;1268;22494;-57
2023/02/25 08:41:22;;;;;;;18.30;12.80;;;;;;;11.25;65.11;100456.66;110497;1275;22359;-57
2023/02/25 08:43:53;;;;;;;19.70;12.20;;;;;;;11.29;64.94;100449.74;110476;1269;22445;-58
2023/02/25 08:46:25;;;;;;;17.10;11.30;;;;;;;11.35;65.03;100439.67;110455;1275;23099;-59
2023/02/25 08:48:54;;;;;;;19.20;11.30;;;;;;;11.42;65.05;100434.41;110304;1275;22362;-57
2023/02/25 08:51:25;;;;;;;17.40;10.70;;;;;;;11.53;64.81;100422.98;110493;1275;22375;-57
2023/02/25 08:53:54;;;;;;;;;;;;;;;11.61;64.53;100412.48;110507;1275;22496;-57
2023/02/25 08:56:22;;;;;;;16.60;8.30;;;;;;;11.68;64.15;100404.46;110489;1268;22583;-57
2023/02/25 08:58:51;;;;;;;15.40;8.80;;;;;;;11.73;63.89;100402.04;110380;1275;22148;-57
2023/02/25 09:01:19;;;;;;;16.00;7.50;;;;;;;11.77;63.83;100398.78;110366;1275;22133;-57
2023/02/25 09:03:52;;;;;;;19.10;8.40;;;;;;;11.81;63.72;100390.33;110503;1275;23127;-57
2023/02/25 09:06:26;;;;;;;12.60;7.70;;;;;;;11.85;63.56;100384.45;110491;1268;22400;-57
2023/02/25 09:08:56;;;;;;;21.30;8.10;;;;;;;11.89;63.43;100380.48;110479;1268;22382;-57
2023/02/25 09:11:25;;;;;;;15.50;7.80;;;;;;;11.93;63.39;100379.68;110458;1275;23061;-58
2023/02/25 09:13:54;;;;;;;16.80;7.40;;;;;;;11.98;63.36;100369.24;110485;1268;22296;-57
2023/02/25 09:16:22;;;;;;;21.30;7.50;;;;;;;12.02;63.29;100363.53;110472;1269;23138;-57
2023/02/25 09:18:51;;;;;;;20.70;6.90;;;;;;;12.08;63.05;100367.34;110474;1275;22821;-57
2023/02/25 09:21:21;;;;;;;18.40;7.50;;;;;;;12.12;62.84;100361.95;110487;1268;22302;-58
2023/02/25 09:23:50;;;;;;;17.90;6.90;;;;;;;12.15;62.75;100365.50;110511;1268;22940;-57
2023/02/25 09:26:19;;;;;;;19.60;7.20;;;;;;;12.18;62.59;100355.66;110481;1268;22913;-57
2023/02/25 09:28:48;;;;;;;21.90;7.50;;;;;;;12.23;62.60;100348.21;110503;1268;22144;-57
2023/02/25 09:31:16;;;;;;;20.00;7.70;;;;;;;12.27;62.40;100344.60;110525;1268;22286;-57
2023/02/25 09:33:46;;;;;;;21.70;7.50;;;;;;;12.32;62.20;100343.03;110486;1271;22426;-57
2023/02/25 09:36:15;;;;;;;22.00;7.10;;;;;;;12.36;62.21;100336.98;110350;1270;22119;-57
2023/02/25 09:38:44;;;;;;;21.60;7.90;;;;;;;12.40;62.15;100335.23;110486;1271;22450;-57
2023/02/25 09:41:19;;;;;;;17.40;7.50;;;;;;;12.46;62.09;100332.08;110461;1275;22403;-57
2023/02/25 09:44:18;;;;;;;19.40;7.20;;;;;;;12.54;61.97;100326.55;110445;1275;22303;-57
2023/02/25 09:46:57;;;;;;;21.90;8.40;;;;;;;12.64;61.77;100312.63;109953;1276;22190;-57
2023/02/25 09:49:30;;;;;;;16.80;8.00;;;;;;;12.71;61.27;100316.87;109956;1276;22444;-57
2023/02/25 09:52:02;;;;;;;26.10;7.00;;;;;;;12.78;61.15;100318.53;109893;1283;23158;-57
2023/02/25 09:54:34;;;;;;;17.70;6.60;;;;;;;12.82;60.97;100318.70;109932;1276;22469;-57
2023/02/25 09:57:03;;;;;;;18.30;7.40;;;;;;;12.86;60.71;100315.95;109913;1276;22251;-58
2023/02/25 09:59:32;;;;;;;16.80;7.20;;;;;;;12.89;60.49;100312.72;109928;1279;23057;-57
2023/02/25 10:02:19;;;;;;;20.10;7.20;;;;;;;12.88;60.29;100310.28;109922;1276;22253;-57
2023/02/25 10:04:56;;;;;;;19.60;7.70;;;;;;;12.87;60.26;100317.67;109832;1279;23071;-57
2023/02/25 10:07:27;;;;;;;19.30;6.60;;;;;;;12.86;60.32;100320.98;109882;1278;22387;-57
2023/02/25 10:10:25;;;;;;;16.60;7.50;;;;;;;12.88;60.32;100311.54;109866;1283;23281;-57
2023/02/25 10:13:19;;;;;;;20.50;8.30;;;;;;;12.92;60.40;100290.47;109613;1285;22960;-57
2023/02/25 10:15:56;;;;;;;19.30;8.20;;;;;;;12.99;60.12;100283.05;109391;1285;22174;-57
2023/02/25 10:18:28;;;;;;;26.10;8.80;;;;;;;13.04;59.85;100276.76;109372;1285;22332;-58
2023/02/25 10:21:17;;;;;;;20.80;7.10;;;;;;;13.08;59.69;100270.72;109282;1284;22190;-57
2023/02/25 10:23:49;;;;;;;19.50;8.30;;;;;;;13.08;59.50;100269.83;109394;1285;22191;-57
2023/02/25 10:26:21;;;;;;;22.20;7.40;;;;;;;13.06;59.44;100274.47;109526;1281;22196;-57
2023/02/25 10:28:52;;;;;;;23.50;8.40;;;;;;;13.02;59.53;100275.44;109528;1281;22239;-57
2023/02/25 10:31:22;;;;;;;25.10;9.00;;;;;;;13.00;59.64;100270.80;109525;1282;22270;-57
2023/02/25 10:33:52;;;;;;;28.70;9.20;;;;;;;13.00;59.50;100260.92;108812;1282;1002529;-58
2023/02/25 10:36:29;;;;;;;20.00;8.00;;;;;;;13.00;59.41;100252.05;109550;1283;22254;-57
2023/02/25 10:38:58;;;;;;;20.80;7.90;;;;;;;13.00;59.43;100244.52;109523;1282;22332;-57
2023/02/25 10:41:26;;;;;;;25.70;8.60;;;;;;;13.00;59.43;100238.43;109566;1282;22215;-57
2023/02/25 10:43:54;;;;;;;25.20;8.90;;;;;;;13.01;59.39;100233.69;109513;1282;22378;-58
2023/02/25 10:46:33;;;;;;;24.50;9.60;;;;;;;13.03;59.28;100230.48;109528;1283;22467;-58
2023/02/25 10:49:13;;;;;;;21.90;10.00;;;;;;;13.05;59.10;100227.64;109471;1282;22393;-59
2023/02/25 10:52:04;;;;;;;17.70;8.00;;;;;;;13.06;58.83;100222.20;109967;1274;22799;-57
2023/02/25 10:54:50;;;;;;;26.40;8.80;;;;;;;13.03;58.73;100214.48;110123;1273;22440;-57
2023/02/25 10:57:31;;;;;;;18.70;8.60;;;;;;;13.01;58.94;100213.16;110498;1268;22173;-57
2023/02/25 11:00:01;;;;;;;;;;;;;;;13.01;58.86;100208.77;110452;1268;22442;-57
2023/02/25 11:02:31;;;;;;;22.60;9.40;;;;;;;13.02;58.82;100200.04;110427;1268;22853;-57
2023/02/25 11:04:59;;;;;;;19.30;8.90;;;;;;;13.00;58.73;100199.45;110453;1268;22299;-57
2023/02/25 11:07:41;;;;;;;20.10;9.20;;;;;;;12.98;58.57;100198.98;110426;1268;22391;-57
2023/02/25 11:10:15;;;;;;;18.60;8.30;;;;;;;12.96;58.47;100198.04;110477;1268;22426;-57
2023/02/25 11:12:54;;;;;;;20.00;8.70;;;;;;;12.90;58.53;100198.44;110204;1266;22984;-57
2023/02/25 11:15:30;;;;;;;18.90;9.20;;;;;;;12.84;58.69;100202.34;110467;1275;22378;-57
2023/02/25 11:18:18;;;;;;;20.70;9.10;;;;;;;12.80;58.88;100202.34;110411;1268;23050;-57
2023/02/25 11:20:51;;;;;;;26.30;9.80;;;;;;;12.78;59.01;100200.86;110474;1268;22356;-58
2023/02/25 11:23:40;;;;;;;18.60;8.90;;;;;;;12.79;58.91;100198.92;110433;1273;23055;-57
2023/02/25 11:26:30;;;;;;;25.00;9.40;;;;;;;12.83;59.06;100194.58;109897;1267;22387;-57